sensor_id;sensor_type;location;lat;lon;timestamp;P1;durP1;ratioP1;P2;durP2;ratioP2
24557;SDS011;12726;49.148;8.582;2023-10-19T00:02:23;27.02;;;17.92;;
24557;SDS011;12726;49.148;8.582;2023-10-19T00:05:08;25.25;;;17.65;;
24557;SDS011;12726;49.148;8.582;2023-10-19T00:07:54;25.15;;;18.15;;
24557;SDS011;12726;49.148;8.582;2023-10-19T00:10:41;26.08;;;18.48;;
24557;SDS011;12726;49.148;8.582;2023-10-19T00:13:28;23.65;;;15.98;;
24557;SDS011;12726;49.148;8.582;2023-10-19T00:16:14;24.05;;;16.55;;
24557;SDS011;12726;49.148;8.582;2023-10-19T00:19:00;20.85;;;13.20;;
24557;SDS011;12726;49.148;8.582;2023-10-19T00:21:46;23.17;;;16.00;;
24557;SDS011;12726;49.148;8.582;2023-10-19T00:24:35;20.83;;;14.45;;
24557;SDS011;12726;49.148;8.582;2023-10-19T00:27:21;24.13;;;16.65;;
24557;SDS011;12726;49.148;8.582;2023-10-19T00:30:07;26.48;;;18.42;;
24557;SDS011;12726;49.148;8.582;2023-10-19T00:32:54;27.75;;;18.30;;
24557;SDS011;12726;49.148;8.582;2023-10-19T00:35:40;25.52;;;17.92;;
24557;SDS011;12726;49.148;8.582;2023-10-19T00:38:31;27.10;;;17.83;;
24557;SDS011;12726;49.148;8.582;2023-10-19T00:41:26;25.45;;;17.15;;
24557;SDS011;12726;49.148;8.582;2023-10-19T00:44:14;26.45;;;17.90;;
24557;SDS011;12726;49.148;8.582;2023-10-19T00:47:01;26.13;;;18.35;;
24557;SDS011;12726;49.148;8.582;2023-10-19T00:49:47;30.00;;;18.60;;
24557;SDS011;12726;49.148;8.582;2023-10-19T00:52:33;26.08;;;17.70;;
24557;SDS011;12726;49.148;8.582;2023-10-19T00:55:27;27.67;;;17.52;;
24557;SDS011;12726;49.148;8.582;2023-10-19T00:58:13;23.83;;;16.50;;
24557;SDS011;12726;49.148;8.582;2023-10-19T01:01:02;25.40;;;17.80;;
24557;SDS011;12726;49.148;8.582;2023-10-19T01:03:51;26.27;;;17.90;;
24557;SDS011;12726;49.148;8.582;2023-10-19T01:06:40;24.48;;;16.42;;
24557;SDS011;12726;49.148;8.582;2023-10-19T01:09:27;22.15;;;15.27;;
24557;SDS011;12726;49.148;8.582;2023-10-19T01:12:18;26.35;;;16.95;;
24557;SDS011;12726;49.148;8.582;2023-10-19T01:15:14;25.42;;;17.65;;
24557;SDS011;12726;49.148;8.582;2023-10-19T01:18:00;23.48;;;16.65;;
24557;SDS011;12726;49.148;8.582;2023-10-19T01:20:46;29.88;;;17.55;;
24557;SDS011;12726;49.148;8.582;2023-10-19T01:23:37;24.38;;;16.73;;
24557;SDS011;12726;49.148;8.582;2023-10-19T01:26:23;26.98;;;17.13;;
24557;SDS011;12726;49.148;8.582;2023-10-19T01:29:10;24.63;;;16.38;;
24557;SDS011;12726;49.148;8.582;2023-10-19T01:32:00;23.65;;;15.95;;
24557;SDS011;12726;49.148;8.582;2023-10-19T01:34:51;23.42;;;15.48;;
24557;SDS011;12726;49.148;8.582;2023-10-19T01:37:37;22.75;;;15.55;;
24557;SDS011;12726;49.148;8.582;2023-10-19T01:40:23;21.33;;;15.13;;
24557;SDS011;12726;49.148;8.582;2023-10-19T01:43:08;19.50;;;15.23;;
24557;SDS011;12726;49.148;8.582;2023-10-19T01:45:53;24.90;;;15.82;;
24557;SDS011;12726;49.148;8.582;2023-10-19T01:48:39;22.83;;;15.07;;
24557;SDS011;12726;49.148;8.582;2023-10-19T01:51:25;24.38;;;16.80;;
24557;SDS011;12726;49.148;8.582;2023-10-19T01:54:12;24.65;;;15.93;;
24557;SDS011;12726;49.148;8.582;2023-10-19T01:56:59;25.55;;;16.25;;
24557;SDS011;12726;49.148;8.582;2023-10-19T01:59:45;22.92;;;15.90;;
24557;SDS011;12726;49.148;8.582;2023-10-19T02:02:30;24.48;;;16.55;;
24557;SDS011;12726;49.148;8.582;2023-10-19T02:05:16;21.95;;;14.98;;
24557;SDS011;12726;49.148;8.582;2023-10-19T02:08:02;20.55;;;14.75;;
24557;SDS011;12726;49.148;8.582;2023-10-19T02:10:48;25.83;;;16.42;;
24557;SDS011;12726;49.148;8.582;2023-10-19T02:13:35;20.35;;;14.13;;
24557;SDS011;12726;49.148;8.582;2023-10-19T02:16:19;23.38;;;15.18;;
24557;SDS011;12726;49.148;8.582;2023-10-19T02:19:06;18.98;;;13.63;;
24557;SDS011;12726;49.148;8.582;2023-10-19T02:21:51;16.40;;;11.65;;
24557;SDS011;12726;49.148;8.582;2023-10-19T02:24:38;20.92;;;13.60;;
24557;SDS011;12726;49.148;8.582;2023-10-19T02:27:22;18.10;;;13.35;;
24557;SDS011;12726;49.148;8.582;2023-10-19T02:30:10;17.80;;;12.20;;
24557;SDS011;12726;49.148;8.582;2023-10-19T02:32:55;20.95;;;12.23;;
24557;SDS011;12726;49.148;8.582;2023-10-19T02:35:41;16.58;;;11.05;;
24557;SDS011;12726;49.148;8.582;2023-10-19T02:38:25;17.52;;;12.40;;
24557;SDS011;12726;49.148;8.582;2023-10-19T02:41:10;11.75;;;8.65;;
24557;SDS011;12726;49.148;8.582;2023-10-19T02:43:54;19.25;;;13.30;;
24557;SDS011;12726;49.148;8.582;2023-10-19T02:46:50;19.60;;;13.85;;
24557;SDS011;12726;49.148;8.582;2023-10-19T02:49:41;22.55;;;15.00;;
24557;SDS011;12726;49.148;8.582;2023-10-19T02:52:28;20.20;;;13.98;;
24557;SDS011;12726;49.148;8.582;2023-10-19T02:55:13;18.40;;;12.43;;
24557;SDS011;12726;49.148;8.582;2023-10-19T02:57:59;18.80;;;13.18;;
24557;SDS011;12726;49.148;8.582;2023-10-19T03:00:45;18.35;;;13.57;;
24557;SDS011;12726;49.148;8.582;2023-10-19T03:03:32;21.13;;;14.38;;
24557;SDS011;12726;49.148;8.582;2023-10-19T03:06:18;21.33;;;15.02;;
24557;SDS011;12726;49.148;8.582;2023-10-19T03:09:04;21.60;;;14.90;;
24557;SDS011;12726;49.148;8.582;2023-10-19T03:11:57;16.20;;;12.27;;
24557;SDS011;12726;49.148;8.582;2023-10-19T03:14:43;20.75;;;12.98;;
24557;SDS011;12726;49.148;8.582;2023-10-19T03:17:30;18.20;;;12.52;;
24557;SDS011;12726;49.148;8.582;2023-10-19T03:20:17;18.90;;;12.40;;
24557;SDS011;12726;49.148;8.582;2023-10-19T03:23:07;18.65;;;13.73;;
24557;SDS011;12726;49.148;8.582;2023-10-19T03:25:54;23.52;;;16.17;;
24557;SDS011;12726;49.148;8.582;2023-10-19T03:28:54;20.15;;;13.73;;
24557;SDS011;12726;49.148;8.582;2023-10-19T03:31:56;18.88;;;13.27;;
24557;SDS011;12726;49.148;8.582;2023-10-19T03:34:42;19.92;;;13.95;;
24557;SDS011;12726;49.148;8.582;2023-10-19T03:37:32;20.42;;;14.57;;
24557;SDS011;12726;49.148;8.582;2023-10-19T03:40:19;26.17;;;15.60;;
24557;SDS011;12726;49.148;8.582;2023-10-19T03:43:11;23.00;;;16.02;;
24557;SDS011;12726;49.148;8.582;2023-10-19T03:46:02;22.25;;;14.60;;
24557;SDS011;12726;49.148;8.582;2023-10-19T03:48:53;23.58;;;15.63;;
24557;SDS011;12726;49.148;8.582;2023-10-19T03:51:42;23.75;;;15.27;;
24557;SDS011;12726;49.148;8.582;2023-10-19T03:54:43;24.38;;;14.55;;
24557;SDS011;12726;49.148;8.582;2023-10-19T03:57:28;19.67;;;13.65;;
24557;SDS011;12726;49.148;8.582;2023-10-19T04:00:14;21.00;;;15.52;;
24557;SDS011;12726;49.148;8.582;2023-10-19T04:03:00;21.17;;;14.60;;
24557;SDS011;12726;49.148;8.582;2023-10-19T04:05:46;18.40;;;12.88;;
24557;SDS011;12726;49.148;8.582;2023-10-19T04:08:33;20.65;;;15.40;;
24557;SDS011;12726;49.148;8.582;2023-10-19T04:11:22;21.70;;;15.40;;
24557;SDS011;12726;49.148;8.582;2023-10-19T04:14:16;22.15;;;14.82;;
24557;SDS011;12726;49.148;8.582;2023-10-19T04:17:02;21.27;;;15.45;;
24557;SDS011;12726;49.148;8.582;2023-10-19T04:19:49;29.42;;;22.38;;
24557;SDS011;12726;49.148;8.582;2023-10-19T04:22:36;29.98;;;24.85;;
24557;SDS011;12726;49.148;8.582;2023-10-19T04:25:21;23.95;;;16.92;;
24557;SDS011;12726;49.148;8.582;2023-10-19T04:28:10;30.27;;;25.10;;
24557;SDS011;12726;49.148;8.582;2023-10-19T04:30:57;24.58;;;16.75;;
24557;SDS011;12726;49.148;8.582;2023-10-19T04:33:46;23.92;;;16.52;;
24557;SDS011;12726;49.148;8.582;2023-10-19T04:36:31;27.25;;;17.45;;
24557;SDS011;12726;49.148;8.582;2023-10-19T04:39:17;25.35;;;15.90;;
24557;SDS011;12726;49.148;8.582;2023-10-19T04:42:03;24.50;;;16.55;;
24557;SDS011;12726;49.148;8.582;2023-10-19T04:44:51;22.17;;;15.07;;
24557;SDS011;12726;49.148;8.582;2023-10-19T04:47:36;21.40;;;15.98;;
24557;SDS011;12726;49.148;8.582;2023-10-19T04:50:22;22.88;;;16.05;;
24557;SDS011;12726;49.148;8.582;2023-10-19T04:53:08;23.92;;;16.05;;
24557;SDS011;12726;49.148;8.582;2023-10-19T04:55:53;24.52;;;16.13;;
24557;SDS011;12726;49.148;8.582;2023-10-19T04:58:39;21.58;;;15.43;;
24557;SDS011;12726;49.148;8.582;2023-10-19T05:01:25;23.70;;;14.70;;
24557;SDS011;12726;49.148;8.582;2023-10-19T05:04:12;19.60;;;13.95;;
24557;SDS011;12726;49.148;8.582;2023-10-19T05:06:57;22.83;;;14.68;;
24557;SDS011;12726;49.148;8.582;2023-10-19T05:09:43;21.63;;;13.43;;
24557;SDS011;12726;49.148;8.582;2023-10-19T05:12:28;20.23;;;14.82;;
24557;SDS011;12726;49.148;8.582;2023-10-19T05:15:14;21.40;;;14.43;;
24557;SDS011;12726;49.148;8.582;2023-10-19T05:18:02;23.48;;;14.18;;
24557;SDS011;12726;49.148;8.582;2023-10-19T05:20:48;19.40;;;13.10;;
24557;SDS011;12726;49.148;8.582;2023-10-19T05:23:38;19.38;;;12.68;;
24557;SDS011;12726;49.148;8.582;2023-10-19T05:26:24;21.88;;;14.00;;
24557;SDS011;12726;49.148;8.582;2023-10-19T05:29:10;20.00;;;12.35;;
24557;SDS011;12726;49.148;8.582;2023-10-19T05:31:56;18.70;;;13.23;;
24557;SDS011;12726;49.148;8.582;2023-10-19T05:34:43;20.85;;;13.63;;
24557;SDS011;12726;49.148;8.582;2023-10-19T05:37:28;22.70;;;13.82;;
24557;SDS011;12726;49.148;8.582;2023-10-19T05:40:14;20.83;;;14.63;;
24557;SDS011;12726;49.148;8.582;2023-10-19T05:42:59;23.20;;;14.57;;
24557;SDS011;12726;49.148;8.582;2023-10-19T05:45:45;21.92;;;14.05;;
24557;SDS011;12726;49.148;8.582;2023-10-19T05:48:33;19.48;;;13.00;;
24557;SDS011;12726;49.148;8.582;2023-10-19T05:51:20;19.92;;;13.75;;
24557;SDS011;12726;49.148;8.582;2023-10-19T05:54:05;19.95;;;13.60;;
24557;SDS011;12726;49.148;8.582;2023-10-19T05:56:52;22.00;;;13.35;;
24557;SDS011;12726;49.148;8.582;2023-10-19T05:59:37;17.73;;;12.60;;
24557;SDS011;12726;49.148;8.582;2023-10-19T06:02:22;19.23;;;13.57;;
24557;SDS011;12726;49.148;8.582;2023-10-19T06:05:08;21.30;;;13.38;;
24557;SDS011;12726;49.148;8.582;2023-10-19T06:07:54;21.98;;;13.70;;
24557;SDS011;12726;49.148;8.582;2023-10-19T06:10:40;18.88;;;14.38;;
24557;SDS011;12726;49.148;8.582;2023-10-19T06:13:26;23.08;;;15.65;;
24557;SDS011;12726;49.148;8.582;2023-10-19T06:16:11;20.40;;;14.02;;
24557;SDS011;12726;49.148;8.582;2023-10-19T06:18:57;22.50;;;14.77;;
24557;SDS011;12726;49.148;8.582;2023-10-19T06:21:43;23.60;;;14.10;;
24557;SDS011;12726;49.148;8.582;2023-10-19T06:24:30;19.48;;;13.18;;
24557;SDS011;12726;49.148;8.582;2023-10-19T06:27:15;27.60;;;13.05;;
24557;SDS011;12726;49.148;8.582;2023-10-19T06:30:00;19.52;;;14.38;;
24557;SDS011;12726;49.148;8.582;2023-10-19T06:32:46;20.30;;;14.43;;
24557;SDS011;12726;49.148;8.582;2023-10-19T06:35:33;25.40;;;11.38;;
24557;SDS011;12726;49.148;8.582;2023-10-19T06:38:20;15.35;;;11.27;;
24557;SDS011;12726;49.148;8.582;2023-10-19T06:41:13;21.42;;;13.38;;
24557;SDS011;12726;49.148;8.582;2023-10-19T06:44:00;16.38;;;10.88;;
24557;SDS011;12726;49.148;8.582;2023-10-19T06:46:46;18.92;;;11.45;;
24557;SDS011;12726;49.148;8.582;2023-10-19T06:49:31;14.40;;;10.75;;
24557;SDS011;12726;49.148;8.582;2023-10-19T06:52:17;17.98;;;11.63;;
24557;SDS011;12726;49.148;8.582;2023-10-19T06:55:03;17.52;;;12.10;;
24557;SDS011;12726;49.148;8.582;2023-10-19T06:57:50;17.75;;;12.73;;
24557;SDS011;12726;49.148;8.582;2023-10-19T07:00:36;16.48;;;11.15;;
24557;SDS011;12726;49.148;8.582;2023-10-19T07:03:26;18.27;;;12.35;;
24557;SDS011;12726;49.148;8.582;2023-10-19T07:06:12;15.05;;;11.45;;
24557;SDS011;12726;49.148;8.582;2023-10-19T07:08:58;14.88;;;10.35;;
24557;SDS011;12726;49.148;8.582;2023-10-19T07:11:43;16.23;;;11.00;;
24557;SDS011;12726;49.148;8.582;2023-10-19T07:14:31;15.95;;;10.68;;
24557;SDS011;12726;49.148;8.582;2023-10-19T07:17:17;15.35;;;11.43;;
24557;SDS011;12726;49.148;8.582;2023-10-19T07:20:03;14.15;;;10.60;;
24557;SDS011;12726;49.148;8.582;2023-10-19T07:22:49;12.95;;;9.73;;
24557;SDS011;12726;49.148;8.582;2023-10-19T07:25:35;13.82;;;10.90;;
24557;SDS011;12726;49.148;8.582;2023-10-19T07:28:27;12.27;;;8.90;;
24557;SDS011;12726;49.148;8.582;2023-10-19T07:31:13;13.23;;;9.95;;
24557;SDS011;12726;49.148;8.582;2023-10-19T07:34:00;12.55;;;9.05;;
24557;SDS011;12726;49.148;8.582;2023-10-19T07:36:47;16.33;;;10.55;;
24557;SDS011;12726;49.148;8.582;2023-10-19T07:39:32;16.17;;;11.05;;
24557;SDS011;12726;49.148;8.582;2023-10-19T07:42:18;18.73;;;11.68;;
24557;SDS011;12726;49.148;8.582;2023-10-19T07:45:05;19.65;;;10.85;;
24557;SDS011;12726;49.148;8.582;2023-10-19T07:47:56;15.25;;;10.90;;
24557;SDS011;12726;49.148;8.582;2023-10-19T07:50:49;16.90;;;11.63;;
24557;SDS011;12726;49.148;8.582;2023-10-19T07:53:36;14.15;;;10.43;;
24557;SDS011;12726;49.148;8.582;2023-10-19T07:56:22;15.50;;;10.70;;
24557;SDS011;12726;49.148;8.582;2023-10-19T07:59:07;17.65;;;10.90;;
24557;SDS011;12726;49.148;8.582;2023-10-19T08:01:53;14.63;;;10.77;;
24557;SDS011;12726;49.148;8.582;2023-10-19T08:04:39;16.00;;;11.20;;
24557;SDS011;12726;49.148;8.582;2023-10-19T08:07:25;12.63;;;10.63;;
24557;SDS011;12726;49.148;8.582;2023-10-19T08:10:11;13.80;;;10.75;;
24557;SDS011;12726;49.148;8.582;2023-10-19T08:12:59;13.45;;;10.18;;
24557;SDS011;12726;49.148;8.582;2023-10-19T08:15:44;15.70;;;10.35;;
24557;SDS011;12726;49.148;8.582;2023-10-19T08:18:30;11.68;;;9.82;;
24557;SDS011;12726;49.148;8.582;2023-10-19T08:21:16;13.57;;;9.00;;
24557;SDS011;12726;49.148;8.582;2023-10-19T08:24:02;13.27;;;9.00;;
24557;SDS011;12726;49.148;8.582;2023-10-19T08:26:48;11.35;;;8.25;;
24557;SDS011;12726;49.148;8.582;2023-10-19T08:29:34;9.57;;;8.02;;
24557;SDS011;12726;49.148;8.582;2023-10-19T08:32:19;8.88;;;7.10;;
24557;SDS011;12726;49.148;8.582;2023-10-19T08:35:05;7.03;;;5.78;;
24557;SDS011;12726;49.148;8.582;2023-10-19T08:37:52;10.05;;;7.47;;
24557;SDS011;12726;49.148;8.582;2023-10-19T08:40:38;7.22;;;6.43;;
24557;SDS011;12726;49.148;8.582;2023-10-19T08:43:24;9.13;;;6.68;;
24557;SDS011;12726;49.148;8.582;2023-10-19T08:46:10;8.30;;;6.55;;
24557;SDS011;12726;49.148;8.582;2023-10-19T08:48:56;7.43;;;6.65;;
24557;SDS011;12726;49.148;8.582;2023-10-19T08:51:43;8.55;;;6.18;;
24557;SDS011;12726;49.148;8.582;2023-10-19T08:54:31;8.45;;;6.43;;
24557;SDS011;12726;49.148;8.582;2023-10-19T08:57:17;10.10;;;7.05;;
24557;SDS011;12726;49.148;8.582;2023-10-19T09:00:03;7.60;;;5.75;;
24557;SDS011;12726;49.148;8.582;2023-10-19T09:02:50;9.95;;;7.25;;
24557;SDS011;12726;49.148;8.582;2023-10-19T09:05:37;10.20;;;6.15;;
24557;SDS011;12726;49.148;8.582;2023-10-19T09:08:23;11.75;;;6.63;;
24557;SDS011;12726;49.148;8.582;2023-10-19T09:11:10;8.68;;;6.57;;
24557;SDS011;12726;49.148;8.582;2023-10-19T09:13:56;7.80;;;5.43;;
24557;SDS011;12726;49.148;8.582;2023-10-19T09:16:53;6.80;;;5.50;;
24557;SDS011;12726;49.148;8.582;2023-10-19T09:19:40;8.40;;;6.10;;
24557;SDS011;12726;49.148;8.582;2023-10-19T09:22:26;7.57;;;6.00;;
24557;SDS011;12726;49.148;8.582;2023-10-19T09:25:20;16.73;;;7.18;;
24557;SDS011;12726;49.148;8.582;2023-10-19T09:28:07;12.23;;;6.80;;
24557;SDS011;12726;49.148;8.582;2023-10-19T09:30:54;11.27;;;6.20;;
24557;SDS011;12726;49.148;8.582;2023-10-19T09:33:41;14.40;;;6.85;;
24557;SDS011;12726;49.148;8.582;2023-10-19T09:36:27;11.45;;;6.22;;
24557;SDS011;12726;49.148;8.582;2023-10-19T09:39:13;9.00;;;6.15;;
24557;SDS011;12726;49.148;8.582;2023-10-19T09:42:00;8.15;;;6.63;;
24557;SDS011;12726;49.148;8.582;2023-10-19T09:44:52;9.57;;;5.60;;
24557;SDS011;12726;49.148;8.582;2023-10-19T09:47:47;7.90;;;5.05;;
24557;SDS011;12726;49.148;8.582;2023-10-19T09:50:34;9.90;;;5.20;;
24557;SDS011;12726;49.148;8.582;2023-10-19T09:53:21;7.38;;;4.80;;
24557;SDS011;12726;49.148;8.582;2023-10-19T09:56:09;6.10;;;5.05;;
24557;SDS011;12726;49.148;8.582;2023-10-19T09:58:59;6.05;;;4.47;;
24557;SDS011;12726;49.148;8.582;2023-10-19T10:02:07;5.60;;;4.45;;
24557;SDS011;12726;49.148;8.582;2023-10-19T10:04:54;6.65;;;4.43;;
24557;SDS011;12726;49.148;8.582;2023-10-19T10:07:41;8.40;;;5.03;;
24557;SDS011;12726;49.148;8.582;2023-10-19T10:10:26;5.32;;;4.47;;
24557;SDS011;12726;49.148;8.582;2023-10-19T10:13:35;5.35;;;4.20;;
24557;SDS011;12726;49.148;8.582;2023-10-19T10:16:21;8.30;;;4.28;;
24557;SDS011;12726;49.148;8.582;2023-10-19T10:19:10;7.15;;;4.53;;
24557;SDS011;12726;49.148;8.582;2023-10-19T10:22:07;5.55;;;4.47;;
24557;SDS011;12726;49.148;8.582;2023-10-19T10:24:57;6.13;;;4.82;;
24557;SDS011;12726;49.148;8.582;2023-10-19T10:27:51;8.07;;;5.70;;
24557;SDS011;12726;49.148;8.582;2023-10-19T10:30:36;8.77;;;6.95;;
24557;SDS011;12726;49.148;8.582;2023-10-19T10:36:23;7.28;;;5.22;;
24557;SDS011;12726;49.148;8.582;2023-10-19T10:39:10;8.23;;;6.88;;
24557;SDS011;12726;49.148;8.582;2023-10-19T10:42:01;7.88;;;5.93;;
24557;SDS011;12726;49.148;8.582;2023-10-19T10:44:48;10.52;;;7.40;;
24557;SDS011;12726;49.148;8.582;2023-10-19T10:47:35;11.52;;;5.30;;
24557;SDS011;12726;49.148;8.582;2023-10-19T10:50:21;7.63;;;5.90;;
24557;SDS011;12726;49.148;8.582;2023-10-19T10:53:09;6.78;;;5.78;;
24557;SDS011;12726;49.148;8.582;2023-10-19T10:55:57;11.63;;;6.53;;
24557;SDS011;12726;49.148;8.582;2023-10-19T10:58:45;8.38;;;5.85;;
24557;SDS011;12726;49.148;8.582;2023-10-19T11:01:31;8.23;;;5.65;;
24557;SDS011;12726;49.148;8.582;2023-10-19T11:04:18;8.07;;;5.47;;
24557;SDS011;12726;49.148;8.582;2023-10-19T11:07:03;6.53;;;4.47;;
24557;SDS011;12726;49.148;8.582;2023-10-19T11:09:49;8.02;;;5.57;;
24557;SDS011;12726;49.148;8.582;2023-10-19T11:12:35;7.97;;;5.85;;
24557;SDS011;12726;49.148;8.582;2023-10-19T11:15:21;7.75;;;5.63;;
24557;SDS011;12726;49.148;8.582;2023-10-19T11:18:07;6.03;;;5.43;;
24557;SDS011;12726;49.148;8.582;2023-10-19T11:20:53;5.80;;;4.28;;
24557;SDS011;12726;49.148;8.582;2023-10-19T11:23:40;6.85;;;5.40;;
24557;SDS011;12726;49.148;8.582;2023-10-19T11:26:28;11.00;;;7.10;;
24557;SDS011;12726;49.148;8.582;2023-10-19T11:29:16;9.18;;;5.95;;
24557;SDS011;12726;49.148;8.582;2023-10-19T11:32:01;8.27;;;7.03;;
24557;SDS011;12726;49.148;8.582;2023-10-19T11:34:46;8.55;;;6.50;;
24557;SDS011;12726;49.148;8.582;2023-10-19T11:37:44;8.45;;;5.50;;
24557;SDS011;12726;49.148;8.582;2023-10-19T11:40:30;8.85;;;7.07;;
24557;SDS011;12726;49.148;8.582;2023-10-19T11:43:17;11.70;;;7.95;;
24557;SDS011;12726;49.148;8.582;2023-10-19T11:46:03;13.80;;;8.65;;
24557;SDS011;12726;49.148;8.582;2023-10-19T11:48:49;20.27;;;12.95;;
24557;SDS011;12726;49.148;8.582;2023-10-19T11:51:34;16.77;;;9.70;;
24557;SDS011;12726;49.148;8.582;2023-10-19T11:54:21;15.00;;;10.57;;
24557;SDS011;12726;49.148;8.582;2023-10-19T11:57:06;16.02;;;10.23;;
24557;SDS011;12726;49.148;8.582;2023-10-19T11:59:53;22.00;;;13.52;;
24557;SDS011;12726;49.148;8.582;2023-10-19T12:02:38;16.90;;;10.45;;
24557;SDS011;12726;49.148;8.582;2023-10-19T12:05:25;14.93;;;9.93;;
24557;SDS011;12726;49.148;8.582;2023-10-19T12:08:10;15.45;;;10.45;;
24557;SDS011;12726;49.148;8.582;2023-10-19T12:10:55;14.20;;;9.13;;
24557;SDS011;12726;49.148;8.582;2023-10-19T12:13:41;13.18;;;9.93;;
24557;SDS011;12726;49.148;8.582;2023-10-19T12:16:28;25.88;;;14.80;;
24557;SDS011;12726;49.148;8.582;2023-10-19T12:19:13;20.92;;;13.30;;
24557;SDS011;12726;49.148;8.582;2023-10-19T12:22:01;18.73;;;13.38;;
24557;SDS011;12726;49.148;8.582;2023-10-19T12:24:46;17.20;;;11.23;;
24557;SDS011;12726;49.148;8.582;2023-10-19T12:27:31;12.27;;;9.68;;
24557;SDS011;12726;49.148;8.582;2023-10-19T12:30:17;14.90;;;10.50;;
24557;SDS011;12726;49.148;8.582;2023-10-19T12:33:06;13.90;;;10.13;;
24557;SDS011;12726;49.148;8.582;2023-10-19T12:35:55;14.70;;;10.77;;
24557;SDS011;12726;49.148;8.582;2023-10-19T12:38:41;16.58;;;10.75;;
24557;SDS011;12726;49.148;8.582;2023-10-19T12:41:27;18.15;;;11.32;;
24557;SDS011;12726;49.148;8.582;2023-10-19T12:44:13;15.93;;;11.40;;
24557;SDS011;12726;49.148;8.582;2023-10-19T12:46:59;22.25;;;13.90;;
24557;SDS011;12726;49.148;8.582;2023-10-19T12:49:46;15.85;;;9.40;;
24557;SDS011;12726;49.148;8.582;2023-10-19T12:52:31;13.45;;;9.05;;
24557;SDS011;12726;49.148;8.582;2023-10-19T12:55:21;9.52;;;7.18;;
24557;SDS011;12726;49.148;8.582;2023-10-19T12:58:10;9.77;;;7.07;;
24557;SDS011;12726;49.148;8.582;2023-10-19T13:00:58;10.05;;;7.72;;
24557;SDS011;12726;49.148;8.582;2023-10-19T13:03:44;10.05;;;7.07;;
24557;SDS011;12726;49.148;8.582;2023-10-19T13:06:32;11.32;;;7.20;;
24557;SDS011;12726;49.148;8.582;2023-10-19T13:09:17;8.73;;;7.07;;
24557;SDS011;12726;49.148;8.582;2023-10-19T13:12:05;9.73;;;6.93;;
24557;SDS011;12726;49.148;8.582;2023-10-19T13:14:51;10.27;;;7.32;;
24557;SDS011;12726;49.148;8.582;2023-10-19T13:17:37;11.55;;;6.63;;
24557;SDS011;12726;49.148;8.582;2023-10-19T13:20:22;9.50;;;6.45;;
24557;SDS011;12726;49.148;8.582;2023-10-19T13:23:09;8.20;;;6.97;;
24557;SDS011;12726;49.148;8.582;2023-10-19T13:25:56;11.32;;;7.93;;
24557;SDS011;12726;49.148;8.582;2023-10-19T13:28:51;10.65;;;7.82;;
24557;SDS011;12726;49.148;8.582;2023-10-19T13:31:39;8.07;;;6.70;;
24557;SDS011;12726;49.148;8.582;2023-10-19T13:34:24;9.65;;;6.63;;
24557;SDS011;12726;49.148;8.582;2023-10-19T13:37:09;10.88;;;7.55;;
24557;SDS011;12726;49.148;8.582;2023-10-19T13:39:56;10.25;;;7.25;;
24557;SDS011;12726;49.148;8.582;2023-10-19T13:42:42;13.13;;;8.73;;
24557;SDS011;12726;49.148;8.582;2023-10-19T13:45:31;10.57;;;6.32;;
24557;SDS011;12726;49.148;8.582;2023-10-19T13:48:17;11.17;;;7.97;;
24557;SDS011;12726;49.148;8.582;2023-10-19T13:51:03;10.32;;;6.90;;
24557;SDS011;12726;49.148;8.582;2023-10-19T13:53:56;10.43;;;8.30;;
24557;SDS011;12726;49.148;8.582;2023-10-19T13:56:43;14.52;;;7.90;;
24557;SDS011;12726;49.148;8.582;2023-10-19T13:59:28;12.10;;;8.07;;
24557;SDS011;12726;49.148;8.582;2023-10-19T14:02:14;10.25;;;8.48;;
24557;SDS011;12726;49.148;8.582;2023-10-19T14:04:59;12.07;;;7.97;;
24557;SDS011;12726;49.148;8.582;2023-10-19T14:07:45;12.18;;;8.13;;
24557;SDS011;12726;49.148;8.582;2023-10-19T14:10:30;15.18;;;8.98;;
24557;SDS011;12726;49.148;8.582;2023-10-19T14:13:17;11.50;;;9.15;;
24557;SDS011;12726;49.148;8.582;2023-10-19T14:16:06;11.57;;;9.75;;
24557;SDS011;12726;49.148;8.582;2023-10-19T14:18:52;17.02;;;10.57;;
24557;SDS011;12726;49.148;8.582;2023-10-19T14:21:37;15.90;;;10.38;;
24557;SDS011;12726;49.148;8.582;2023-10-19T14:24:24;15.75;;;11.75;;
24557;SDS011;12726;49.148;8.582;2023-10-19T14:27:09;14.35;;;11.73;;
24557;SDS011;12726;49.148;8.582;2023-10-19T14:29:56;16.38;;;11.60;;
24557;SDS011;12726;49.148;8.582;2023-10-19T14:32:42;30.85;;;22.35;;
24557;SDS011;12726;49.148;8.582;2023-10-19T14:35:31;22.65;;;17.95;;
24557;SDS011;12726;49.148;8.582;2023-10-19T14:38:19;21.80;;;13.48;;
24557;SDS011;12726;49.148;8.582;2023-10-19T14:41:04;14.85;;;11.95;;
24557;SDS011;12726;49.148;8.582;2023-10-19T14:43:50;14.70;;;10.55;;
24557;SDS011;12726;49.148;8.582;2023-10-19T14:46:36;16.65;;;11.63;;
24557;SDS011;12726;49.148;8.582;2023-10-19T14:49:22;21.35;;;15.57;;
24557;SDS011;12726;49.148;8.582;2023-10-19T14:52:07;28.40;;;18.90;;
24557;SDS011;12726;49.148;8.582;2023-10-19T14:54:52;20.27;;;15.77;;
24557;SDS011;12726;49.148;8.582;2023-10-19T14:57:40;23.75;;;13.80;;
24557;SDS011;12726;49.148;8.582;2023-10-19T15:00:26;18.55;;;13.82;;
24557;SDS011;12726;49.148;8.582;2023-10-19T15:03:17;19.80;;;16.52;;
24557;SDS011;12726;49.148;8.582;2023-10-19T15:06:04;21.38;;;15.65;;
24557;SDS011;12726;49.148;8.582;2023-10-19T15:08:50;17.80;;;13.85;;
24557;SDS011;12726;49.148;8.582;2023-10-19T15:11:35;17.85;;;12.82;;
24557;SDS011;12726;49.148;8.582;2023-10-19T15:14:21;20.83;;;12.82;;
24557;SDS011;12726;49.148;8.582;2023-10-19T15:17:06;16.02;;;11.40;;
24557;SDS011;12726;49.148;8.582;2023-10-19T15:19:53;12.48;;;10.50;;
24557;SDS011;12726;49.148;8.582;2023-10-19T15:22:38;10.90;;;9.07;;
24557;SDS011;12726;49.148;8.582;2023-10-19T15:25:23;13.55;;;7.22;;
24557;SDS011;12726;49.148;8.582;2023-10-19T15:28:08;8.45;;;5.82;;
24557;SDS011;12726;49.148;8.582;2023-10-19T15:30:54;7.25;;;5.22;;
24557;SDS011;12726;49.148;8.582;2023-10-19T15:33:41;7.60;;;4.78;;
24557;SDS011;12726;49.148;8.582;2023-10-19T15:36:28;6.82;;;4.35;;
24557;SDS011;12726;49.148;8.582;2023-10-19T15:39:13;8.43;;;6.00;;
24557;SDS011;12726;49.148;8.582;2023-10-19T15:41:59;8.13;;;6.25;;
24557;SDS011;12726;49.148;8.582;2023-10-19T15:44:45;5.95;;;3.55;;
24557;SDS011;12726;49.148;8.582;2023-10-19T15:47:30;5.22;;;4.15;;
24557;SDS011;12726;49.148;8.582;2023-10-19T15:50:18;5.43;;;3.10;;
24557;SDS011;12726;49.148;8.582;2023-10-19T15:53:05;7.00;;;3.85;;
24557;SDS011;12726;49.148;8.582;2023-10-19T15:55:51;3.92;;;2.60;;
24557;SDS011;12726;49.148;8.582;2023-10-19T15:58:36;4.50;;;3.00;;
24557;SDS011;12726;49.148;8.582;2023-10-19T16:01:21;7.20;;;3.53;;
24557;SDS011;12726;49.148;8.582;2023-10-19T16:04:07;3.53;;;2.70;;
24557;SDS011;12726;49.148;8.582;2023-10-19T16:06:52;7.85;;;3.53;;
24557;SDS011;12726;49.148;8.582;2023-10-19T16:09:39;4.32;;;3.03;;
24557;SDS011;12726;49.148;8.582;2023-10-19T16:12:25;6.32;;;4.32;;
24557;SDS011;12726;49.148;8.582;2023-10-19T16:15:11;5.63;;;3.10;;
24557;SDS011;12726;49.148;8.582;2023-10-19T16:17:56;7.32;;;2.60;;
24557;SDS011;12726;49.148;8.582;2023-10-19T16:20:42;3.53;;;2.83;;
24557;SDS011;12726;49.148;8.582;2023-10-19T16:23:27;6.78;;;2.83;;
24557;SDS011;12726;49.148;8.582;2023-10-19T16:26:14;4.93;;;3.05;;
24557;SDS011;12726;49.148;8.582;2023-10-19T16:29:00;3.42;;;2.67;;
24557;SDS011;12726;49.148;8.582;2023-10-19T16:31:48;5.43;;;3.25;;